Terminal Aerodrome Forecast
Issued by NWS Shreveport, LA

Current Version | Previous Version | Text Only | Print | Product List | Glossary On
Versions: 1 2 3 4 5 6 7 8 9 10 11 12 13 14 15
169
FTUS44 KSHV 191805 RRA
TAFELD
TAF
KELD 191805Z 1918/2018 VRB04KT P6SM OVC003
      TEMPO 1918/1920 5SM BR
     FM192000 20005KT P6SM OVC007
     FM200200 18004KT 6SM BR OVC007
     FM200600 18004KT 4SM BR OVC003
     FM201300 18006KT 1/2SM FG OVC001=

USA.gov is the U.S. government's official web portal to all federal, state and local government web resources and services.